Terminal Aerodrome Forecast
Issued by NWS Louisville, KY

Home | Current Version | Previous Version | Text Only | Print | Product List | Glossary On
Versions: 1 2 3 4 5 6 7 8 9 10 11 12 13 14 15 16 17 18
166
FTUS43 KLMK 091428 AAA
TAFLEX
TAF AMD
KLEX 091428Z 0914/1012 26009KT P6SM VCSH FEW012 BKN035
      TEMPO 0916/0919 4SM -SHSN BKN022
     FM091900 27010G17KT 5SM -SHSN OVC025=

USA.gov is the U.S. government's official web portal to all federal, state and local government web resources and services.